Time;durP1;ratioP1;P1;durP2;ratioP2;P2;SDS_P1;SDS_P2;PMS_P1;PMS_P2;Temp;Humidity;BMP_temperature;BMP_pressure;BME280_temperature;BME280_humidity;BME280_pressure;Samples;Min_cycle;Max_cycle;Signal;HPM_P1;HPM_P2
2022/09/13 00:00:34;;;;;;;1.63;0.53;;;16.00;99.90;;;;;;5073813;28;20456;-83
2022/09/13 00:03:01;;;;;;;0.57;0.50;;;16.00;99.90;;;;;;5073313;28;20457;-83
2022/09/13 00:05:28;;;;;;;0.30;0.30;;;15.90;99.90;;;;;;5073858;28;20451;-83
2022/09/13 00:07:55;;;;;;;1.63;0.47;;;15.90;99.90;;;;;;5073249;28;20477;-83
2022/09/13 00:10:23;;;;;;;0.73;0.60;;;16.00;99.90;;;;;;5073546;28;20453;-83
2022/09/13 00:12:51;;;;;;;1.33;0.40;;;16.00;99.90;;;;;;5073431;28;20503;-83
2022/09/13 00:15:19;;;;;;;0.60;0.40;;;16.00;99.90;;;;;;5073452;28;20441;-83
2022/09/13 00:17:45;;;;;;;0.40;0.40;;;16.00;99.90;;;;;;5073475;28;20437;-82
2022/09/13 00:20:12;;;;;;;0.70;0.50;;;16.00;99.90;;;;;;5073401;28;20456;-83
2022/09/13 00:22:39;;;;;;;0.40;0.40;;;16.00;99.90;;;;;;5072996;28;20468;-83
2022/09/13 00:25:07;;;;;;;0.70;0.60;;;15.90;99.90;;;;;;5073351;28;20460;-83
2022/09/13 00:27:34;;;;;;;0.43;0.40;;;15.90;99.90;;;;;;5073028;28;20500;-83
2022/09/13 00:30:02;;;;;;;0.50;0.43;;;15.90;99.90;;;;;;5073387;28;20429;-83
2022/09/13 00:32:29;;;;;;;0.30;0.30;;;15.90;99.90;;;;;;5073327;28;20821;-82
2022/09/13 00:34:56;;;;;;;1.37;0.60;;;15.90;99.90;;;;;;5073271;28;20445;-83
2022/09/13 00:37:23;;;;;;;0.50;0.50;;;15.80;99.90;;;;;;5073261;28;20506;-83
2022/09/13 00:39:49;;;;;;;0.40;0.30;;;15.80;99.90;;;;;;5072926;28;20809;-83
2022/09/13 00:42:16;;;;;;;0.90;0.47;;;15.70;99.90;;;;;;5072874;28;20988;-83
2022/09/13 00:44:56;;;;;;;0.77;0.50;;;15.70;99.90;;;;;;5072975;28;20440;-83
2022/09/13 00:47:27;;;;;;;1.00;0.60;;;15.70;99.90;;;;;;5073170;28;20475;-83
2022/09/13 00:49:58;;;;;;;1.80;0.70;;;15.70;99.90;;;;;;5073221;28;20433;-83
2022/09/13 00:52:28;;;;;;;0.53;0.53;;;15.70;99.90;;;;;;5072837;28;20469;-83
2022/09/13 00:55:00;;;;;;;1.33;0.50;;;15.60;99.90;;;;;;5072822;28;20948;-82
2022/09/13 00:57:28;;;;;;;0.50;0.50;;;15.50;99.90;;;;;;5072892;28;20412;-83
2022/09/13 01:00:03;;;;;;;0.50;0.50;;;15.60;99.90;;;;;;5072832;28;20812;-83
2022/09/13 01:02:31;;;;;;;0.53;0.50;;;15.50;99.90;;;;;;5073006;28;20478;-83
2022/09/13 01:04:59;;;;;;;0.67;0.63;;;15.50;99.90;;;;;;5072987;28;20449;-83
2022/09/13 01:07:25;;;;;;;0.80;0.70;;;15.50;99.90;;;;;;5072646;28;20499;-83
2022/09/13 01:09:53;;;;;;;0.50;0.50;;;15.50;99.90;;;;;;5072961;28;20458;-82
2022/09/13 01:12:32;;;;;;;0.67;0.50;;;15.50;99.90;;;;;;5072547;28;20472;-83
2022/09/13 01:15:00;;;;;;;0.50;0.50;;;15.50;99.90;;;;;;5072929;28;20429;-83
2022/09/13 01:17:28;;;;;;;0.60;0.53;;;15.50;99.90;;;;;;5072873;28;20436;-83
2022/09/13 01:19:56;;;;;;;0.40;0.30;;;15.50;99.90;;;;;;5072887;28;20445;-83
2022/09/13 01:22:54;;;;;;;0.70;0.57;;;15.50;99.90;;;;;;5072768;28;20468;-83
2022/09/13 01:25:50;;;;;;;0.47;0.47;;;15.50;99.90;;;;;;5072540;28;20877;-83
2022/09/13 01:28:58;;;;;;;0.80;0.50;;;15.50;99.90;;;;;;5072352;28;20480;-83
2022/09/13 01:31:34;;;;;;;0.37;0.33;;;15.50;99.90;;;;;;5072804;28;20444;-83
2022/09/13 01:34:12;;;;;;;0.77;0.57;;;15.50;99.90;;;;;;5072947;28;20483;-83
2022/09/13 01:36:59;;;;;;;0.50;0.47;;;15.50;99.90;;;;;;5077215;28;20425;-83
2022/09/13 01:39:42;;;;;;;0.70;0.60;;;15.60;99.90;;;;;;5076134;28;20496;-83
2022/09/13 01:42:16;;;;;;;8.87;0.87;;;15.60;99.90;;;;;;5076462;28;20428;-83
2022/09/13 01:44:57;;;;;;;1.10;0.57;;;15.60;99.90;;;;;;5077085;28;20432;-83
2022/09/13 01:47:31;;;;;;;0.80;0.67;;;15.70;99.90;;;;;;5076437;28;20472;-83
2022/09/13 01:50:12;;;;;;;0.50;0.50;;;15.70;99.90;;;;;;5076434;28;20468;-83
2022/09/13 01:52:45;;;;;;;0.60;0.60;;;15.70;99.90;;;;;;5075901;28;20987;-83
2022/09/13 01:55:23;;;;;;;0.40;0.40;;;15.70;99.90;;;;;;5075996;28;20414;-83
2022/09/13 01:57:56;;;;;;;0.83;0.50;;;15.70;99.90;;;;;;5076024;28;20425;-83
2022/09/13 02:00:23;;;;;;;0.63;0.60;;;15.70;99.90;;;;;;5076004;28;20425;-83
2022/09/13 02:02:54;;;;;;;0.50;0.47;;;15.70;99.90;;;;;;5075863;28;20472;-83
2022/09/13 02:05:33;;;;;;;0.43;0.40;;;15.70;99.90;;;;;;5075592;28;20901;-83
2022/09/13 02:08:04;;;;;;;0.47;0.40;;;15.70;99.90;;;;;;5075757;28;20464;-83
2022/09/13 02:10:35;;;;;;;1.03;0.50;;;15.70;99.90;;;;;;5075808;28;20426;-83
2022/09/13 02:13:05;;;;;;;0.40;0.40;;;15.70;99.90;;;;;;5075697;28;20468;-83
2022/09/13 02:15:36;;;;;;;0.70;0.47;;;15.70;99.90;;;;;;5076594;28;20448;-83
2022/09/13 02:18:10;;;;;;;1.10;0.90;;;15.70;99.90;;;;;;5075633;28;20426;-83
2022/09/13 02:20:41;;;;;;;0.50;0.50;;;15.60;99.90;;;;;;5075616;28;20440;-83
2022/09/13 02:23:13;;;;;;;0.50;0.50;;;15.60;99.90;;;;;;5075281;28;20957;-83
2022/09/13 02:25:41;;;;;;;0.47;0.40;;;15.50;99.90;;;;;;5075846;28;20503;-83
2022/09/13 02:28:11;;;;;;;0.77;0.60;;;15.50;99.90;;;;;;5074952;28;20495;-83
2022/09/13 02:30:45;;;;;;;0.40;0.40;;;15.40;99.90;;;;;;5075143;28;20902;-83
2022/09/13 02:33:16;;;;;;;0.47;0.40;;;15.40;99.90;;;;;;5075382;28;20472;-83
2022/09/13 02:35:51;;;;;;;0.50;0.50;;;15.40;99.90;;;;;;5075575;28;20429;-83
2022/09/13 02:38:23;;;;;;;0.83;0.50;;;15.40;99.90;;;;;;5075082;28;20416;-83
2022/09/13 02:40:57;;;;;;;0.50;0.50;;;15.30;99.90;;;;;;5075251;28;20429;-83
2022/09/13 02:43:31;;;;;;;0.60;0.40;;;15.30;99.90;;;;;;5074878;28;20460;-82
2022/09/13 02:46:10;;;;;;;0.50;0.40;;;15.30;99.90;;;;;;5074831;28;20537;-83
2022/09/13 02:48:48;;;;;;;0.47;0.40;;;15.20;99.90;;;;;;5075058;28;20469;-83
2022/09/13 02:51:23;;;;;;;0.67;0.63;;;15.20;99.90;;;;;;5074754;28;20429;-83
2022/09/13 02:53:57;;;;;;;0.60;0.60;;;15.20;99.90;;;;;;5074595;28;20971;-83
2022/09/13 02:56:30;;;;;;;0.70;0.40;;;15.10;99.90;;;;;;5074629;28;20441;-83
2022/09/13 02:59:02;;;;;;;0.70;0.70;;;15.10;99.90;;;;;;5074916;28;20433;-83
2022/09/13 03:01:29;;;;;;;0.47;0.47;;;15.00;99.90;;;;;;5074775;28;20417;-83
2022/09/13 03:03:57;;;;;;;0.50;0.50;;;15.00;99.90;;;;;;5074648;28;20547;-83
2022/09/13 03:06:24;;;;;;;0.43;0.40;;;15.00;99.90;;;;;;5074714;28;20456;-83
2022/09/13 03:08:51;;;;;;;0.77;0.77;;;15.00;99.90;;;;;;5074425;28;20849;-83
2022/09/13 03:11:26;;;;;;;0.83;0.70;;;15.00;99.90;;;;;;5074336;28;20433;-83
2022/09/13 03:14:08;;;;;;;1.00;0.60;;;14.90;99.90;;;;;;5074562;28;20464;-83
2022/09/13 03:16:48;;;;;;;0.40;0.30;;;14.90;99.90;;;;;;5074194;28;20807;-83
2022/09/13 03:19:30;;;;;;;0.50;0.50;;;14.90;99.90;;;;;;5074234;28;20463;-83
2022/09/13 03:22:17;;;;;;;0.60;0.60;;;14.90;99.90;;;;;;5074225;28;20416;-83
2022/09/13 03:24:52;;;;;;;0.40;0.40;;;14.80;99.90;;;;;;5074357;28;20435;-83
2022/09/13 03:27:27;;;;;;;3.50;0.60;;;14.80;99.90;;;;;;5074088;28;20476;-83
2022/09/13 03:29:59;;;;;;;0.93;0.67;;;14.80;99.90;;;;;;5074204;28;20510;-83
2022/09/13 03:32:35;;;;;;;0.57;0.53;;;14.80;99.90;;;;;;5073827;28;20465;-83
2022/09/13 03:35:10;;;;;;;3.10;0.80;;;14.80;99.90;;;;;;5074436;28;20412;-83
2022/09/13 03:37:45;;;;;;;1.10;0.60;;;14.90;99.90;;;;;;5074180;28;20503;-83
2022/09/13 03:40:15;;;;;;;0.70;0.70;;;14.90;99.90;;;;;;5074046;28;20444;-83
2022/09/13 03:42:46;;;;;;;2.50;0.50;;;15.00;99.90;;;;;;5073931;28;20456;-83
2022/09/13 03:45:15;;;;;;;0.50;0.40;;;15.00;99.90;;;;;;5073931;28;20445;-83
2022/09/13 03:47:43;;;;;;;0.70;0.50;;;15.00;99.90;;;;;;5073650;28;20445;-82
2022/09/13 03:50:16;;;;;;;0.70;0.70;;;15.00;99.90;;;;;;5073915;28;20444;-83
2022/09/13 03:52:44;;;;;;;0.53;0.53;;;15.00;99.90;;;;;;5073468;28;20991;-83
2022/09/13 03:55:11;;;;;;;0.40;0.40;;;15.00;99.90;;;;;;5073720;28;20949;-83
2022/09/13 03:57:37;;;;;;;0.90;0.50;;;15.00;99.90;;;;;;5073091;28;20459;-83
2022/09/13 04:00:06;;;;;;;0.50;0.40;;;15.00;99.90;;;;;;5074146;28;20457;-83
2022/09/13 04:02:32;;;;;;;0.40;0.40;;;14.90;99.90;;;;;;5073575;28;20820;-83
2022/09/13 04:04:59;;;;;;;0.53;0.40;;;14.80;99.90;;;;;;5073649;28;20510;-83
2022/09/13 04:07:27;;;;;;;1.07;0.63;;;14.80;99.90;;;;;;5073634;28;20474;-83
2022/09/13 04:09:54;;;;;;;0.57;0.57;;;14.80;99.90;;;;;;5073198;28;20854;-82
2022/09/13 04:12:21;;;;;;;0.80;0.50;;;14.70;99.90;;;;;;5073140;28;20469;-83
2022/09/13 04:14:48;;;;;;;0.50;0.40;;;14.60;99.90;;;;;;5073753;28;20453;-83
2022/09/13 04:17:16;;;;;;;0.50;0.50;;;14.60;99.90;;;;;;5073105;28;20827;-83
2022/09/13 04:19:45;;;;;;;0.47;0.43;;;14.60;99.90;;;;;;5073443;28;20441;-83
2022/09/13 04:22:13;;;;;;;0.60;0.60;;;14.60;99.90;;;;;;5073331;28;20452;-83
2022/09/13 04:24:43;;;;;;;0.50;0.47;;;14.50;99.90;;;;;;5073404;28;20478;-83
2022/09/13 04:27:11;;;;;;;0.40;0.40;;;14.50;99.90;;;;;;5073039;28;20520;-83
2022/09/13 04:29:38;;;;;;;0.50;0.50;;;14.50;99.90;;;;;;5073294;28;20483;-83
2022/09/13 04:32:05;;;;;;;2.20;0.87;;;14.40;99.90;;;;;;5073035;28;20437;-83
2022/09/13 04:34:33;;;;;;;0.43;0.43;;;14.50;99.90;;;;;;5073309;28;20456;-83
2022/09/13 04:36:59;;;;;;;0.40;0.40;;;14.50;99.90;;;;;;5073351;28;20453;-83
2022/09/13 04:39:26;;;;;;;0.50;0.50;;;14.50;99.90;;;;;;5073270;28;20436;-83
2022/09/13 04:41:54;;;;;;;0.53;0.53;;;14.50;99.90;;;;;;5072966;28;20455;-83
2022/09/13 04:44:23;;;;;;;0.77;0.77;;;14.60;99.90;;;;;;5072846;28;21004;-83
2022/09/13 04:46:49;;;;;;;0.70;0.50;;;14.50;99.90;;;;;;5073237;28;20786;-83
2022/09/13 04:49:17;;;;;;;0.73;0.30;;;14.60;99.90;;;;;;5073096;28;20476;-83
2022/09/13 04:51:44;;;;;;;0.57;0.57;;;14.60;99.90;;;;;;5072872;28;20460;-83
2022/09/13 04:54:12;;;;;;;0.80;0.80;;;14.60;99.90;;;;;;5073083;28;20461;-83
2022/09/13 04:56:39;;;;;;;0.63;0.50;;;14.60;99.90;;;;;;5073340;28;20452;-83
2022/09/13 04:59:07;;;;;;;1.10;1.10;;;14.60;99.90;;;;;;5073040;28;20948;-83
2022/09/13 05:01:34;;;;;;;0.60;0.60;;;14.60;99.90;;;;;;5073072;28;20448;-83
2022/09/13 05:04:01;;;;;;;0.50;0.50;;;14.70;99.90;;;;;;5072654;28;20473;-83
2022/09/13 05:06:28;;;;;;;0.50;0.50;;;14.70;99.90;;;;;;5072718;28;20442;-83
2022/09/13 05:08:56;;;;;;;0.97;0.97;;;14.70;99.90;;;;;;5074294;28;20506;-84
2022/09/13 05:11:24;;;;;;;0.83;0.50;;;14.70;99.90;;;;;;5076877;28;20455;-84
2022/09/13 05:13:53;;;;;;;0.47;0.40;;;14.70;99.90;;;;;;5076553;28;20460;-84
2022/09/13 05:16:22;;;;;;;0.40;0.40;;;14.70;99.90;;;;;;5076743;28;20453;-83
2022/09/13 05:18:49;;;;;;;0.60;0.40;;;14.70;99.90;;;;;;5076766;28;20451;-83
2022/09/13 05:21:15;;;;;;;1.80;0.60;;;14.70;99.90;;;;;;5076731;28;20447;-83
2022/09/13 05:23:42;;;;;;;0.70;0.60;;;14.70;99.90;;;;;;5076583;28;20456;-83
2022/09/13 05:26:09;;;;;;;1.47;0.53;;;14.60;99.90;;;;;;5076083;28;20444;-83
2022/09/13 05:28:37;;;;;;;1.67;0.60;;;14.60;99.90;;;;;;5076551;28;20461;-83
2022/09/13 05:31:06;;;;;;;0.50;0.50;;;14.60;99.90;;;;;;5076545;28;20448;-83
2022/09/13 05:33:37;;;;;;;0.40;0.40;;;14.60;99.90;;;;;;5076677;28;20470;-83
2022/09/13 05:36:04;;;;;;;0.80;0.80;;;14.60;99.90;;;;;;5076447;28;20432;-83
2022/09/13 05:38:31;;;;;;;0.50;0.50;;;14.60;99.90;;;;;;5076443;28;20449;-84
2022/09/13 05:40:59;;;;;;;0.63;0.63;;;14.60;99.90;;;;;;5076322;28;20455;-83
2022/09/13 05:43:28;;;;;;;0.67;0.67;;;14.60;99.90;;;;;;5076212;28;20465;-83
2022/09/13 05:46:01;;;;;;;0.63;0.53;;;14.70;99.90;;;;;;5076054;28;20535;-83
2022/09/13 05:48:28;;;;;;;0.60;0.60;;;14.70;99.90;;;;;;5076169;28;20437;-83
2022/09/13 05:50:56;;;;;;;0.60;0.60;;;14.70;99.90;;;;;;5076151;28;20448;-83
2022/09/13 05:53:23;;;;;;;0.40;0.40;;;14.70;99.90;;;;;;5075885;28;21017;-82
2022/09/13 05:55:50;;;;;;;1.13;0.60;;;14.70;99.90;;;;;;5076091;28;20464;-83
2022/09/13 05:58:16;;;;;;;0.50;0.50;;;14.70;99.90;;;;;;5076040;28;20445;-83
2022/09/13 06:00:43;;;;;;;1.10;0.67;;;14.70;99.90;;;;;;5076009;28;20449;-83
2022/09/13 06:03:10;;;;;;;1.30;0.70;;;14.80;99.90;;;;;;5075907;28;20472;-83
2022/09/13 06:05:36;;;;;;;0.60;0.60;;;14.80;99.90;;;;;;5075932;28;20447;-83
2022/09/13 06:08:04;;;;;;;0.90;0.80;;;14.90;99.90;;;;;;5076129;28;20441;-83
2022/09/13 06:10:32;;;;;;;1.37;0.97;;;15.00;99.90;;;;;;5075996;28;20496;-84
2022/09/13 06:12:59;;;;;;;0.50;0.50;;;15.10;99.90;;;;;;5075742;28;20520;-83
2022/09/13 06:15:25;;;;;;;1.13;0.50;;;15.20;99.90;;;;;;5075702;28;20456;-83
2022/09/13 06:17:52;;;;;;;1.83;0.60;;;15.30;99.90;;;;;;5075841;28;20444;-83
2022/09/13 06:20:19;;;;;;;1.30;0.57;;;15.40;99.90;;;;;;5074657;28;20936;-83
2022/09/13 06:22:48;;;;;;;0.70;0.60;;;15.40;99.90;;;;;;5076393;28;20480;-84
2022/09/13 06:25:16;;;;;;;0.83;0.80;;;15.50;99.90;;;;;;5075312;28;20940;-83
2022/09/13 06:27:43;;;;;;;1.47;0.50;;;15.40;99.90;;;;;;5075142;28;20492;-83
2022/09/13 06:30:11;;;;;;;1.03;0.73;;;15.40;99.90;;;;;;5075528;28;20530;-85
2022/09/13 06:32:38;;;;;;;5.50;0.87;;;15.40;99.90;;;;;;5075191;28;20999;-86
2022/09/13 06:35:06;;;;;;;0.70;0.60;;;15.40;99.90;;;;;;5075273;28;20959;-85
2022/09/13 06:37:33;;;;;;;1.00;0.70;;;15.30;99.90;;;;;;5075119;28;20452;-86
2022/09/13 06:39:59;;;;;;;1.27;1.10;;;15.30;99.90;;;;;;5075415;28;20456;-86
2022/09/13 06:42:27;;;;;;;0.60;0.60;;;15.40;99.90;;;;;;5075196;28;20475;-86
2022/09/13 06:44:54;;;;;;;0.73;0.70;;;15.40;99.90;;;;;;5075187;28;20433;-86
2022/09/13 06:47:21;;;;;;;0.50;0.43;;;15.50;99.90;;;;;;5075234;28;20449;-86
2022/09/13 06:49:47;;;;;;;0.60;0.57;;;15.60;99.90;;;;;;5075053;28;20464;-86
2022/09/13 06:52:14;;;;;;;1.00;0.60;;;15.70;99.90;;;;;;5075504;28;20441;-85
2022/09/13 06:54:41;;;;;;;0.70;0.70;;;15.80;99.90;;;;;;5075243;28;20434;-86
2022/09/13 06:57:08;;;;;;;2.00;0.80;;;15.90;99.90;;;;;;5075186;28;20834;-86
2022/09/13 06:59:36;;;;;;;1.57;0.70;;;16.00;99.90;;;;;;5075253;28;20449;-86
2022/09/13 07:02:02;;;;;;;3.00;0.80;;;16.10;99.90;;;;;;5074970;28;20452;-86
2022/09/13 07:04:30;;;;;;;0.70;0.70;;;16.30;99.90;;;;;;5075099;28;20888;-86
2022/09/13 07:06:58;;;;;;;1.03;0.93;;;16.30;99.90;;;;;;5075073;28;20495;-86
2022/09/13 07:09:25;;;;;;;0.97;0.50;;;16.50;99.90;;;;;;5074577;28;20476;-86
2022/09/13 07:11:55;;;;;;;2.07;0.90;;;16.60;99.90;;;;;;5074909;28;20441;-78
2022/09/13 07:14:24;;;;;;;0.60;0.60;;;16.70;99.90;;;;;;5074177;28;20452;-78
2022/09/13 07:16:52;;;;;;;1.10;0.70;;;16.90;99.90;;;;;;5074435;28;20453;-78
2022/09/13 07:19:21;;;;;;;8.93;0.80;;;17.00;99.90;;;;;;5074433;28;20444;-78
2022/09/13 07:21:49;;;;;;;0.60;0.60;;;17.20;99.90;;;;;;5074570;28;20442;-78
2022/09/13 07:24:16;;;;;;;1.43;0.70;;;17.30;99.90;;;;;;5073938;28;20527;-77
2022/09/13 07:26:43;;;;;;;0.60;0.50;;;17.60;99.90;;;;;;5073764;28;20473;-84
2022/09/13 07:29:13;;;;;;;1.90;0.60;;;17.80;99.90;;;;;;5074411;28;20480;-84
2022/09/13 07:31:42;;;;;;;1.27;0.60;;;18.00;99.90;;;;;;5073968;28;20498;-87
2022/09/13 07:34:13;;;;;;;1.10;1.03;;;18.10;99.90;;;;;;5074307;28;20468;-87
2022/09/13 07:36:40;;;;;;;1.03;0.70;;;18.20;99.90;;;;;;5074257;28;20429;-85
2022/09/13 07:39:07;;;;;;;1.03;0.60;;;18.30;99.90;;;;;;5074613;28;20448;-87
2022/09/13 07:41:35;;;;;;;0.57;0.57;;;18.50;99.90;;;;;;5074928;28;20468;-87
2022/09/13 07:44:03;;;;;;;0.50;0.50;;;18.70;99.90;;;;;;5074535;28;20560;-87
2022/09/13 07:46:32;;;;;;;1.37;0.60;;;19.00;99.90;;;;;;5074354;28;20491;-87
2022/09/13 07:49:00;;;;;;;0.50;0.50;;;19.10;99.90;;;;;;5074499;28;20468;-88
2022/09/13 07:51:30;;;;;;;1.40;0.50;;;19.20;99.90;;;;;;5074488;28;20440;-88
2022/09/13 07:53:58;;;;;;;0.50;0.50;;;19.20;99.90;;;;;;5073909;28;20992;-87
2022/09/13 07:56:27;;;;;;;0.73;0.60;;;19.20;99.90;;;;;;5074481;28;20441;-87
2022/09/13 07:58:55;;;;;;;0.57;0.57;;;19.20;99.90;;;;;;5074255;28;20506;-87
2022/09/13 08:01:23;;;;;;;0.60;0.40;;;19.30;99.90;;;;;;5074283;28;20453;-87
2022/09/13 08:03:54;;;;;;;0.40;0.33;;;19.50;99.90;;;;;;5074281;28;20464;-87
2022/09/13 08:06:21;;;;;;;0.50;0.50;;;19.70;99.90;;;;;;5074204;28;20445;-87
2022/09/13 08:08:50;;;;;;;0.50;0.50;;;20.00;99.90;;;;;;5074333;28;20459;-87
2022/09/13 08:11:18;;;;;;;0.50;0.47;;;20.30;99.90;;;;;;5073878;28;20484;-86
2022/09/13 08:13:46;;;;;;;0.50;0.50;;;20.60;99.90;;;;;;5074178;28;20472;-87
2022/09/13 08:16:14;;;;;;;0.60;0.60;;;21.00;99.90;;;;;;5074246;28;20494;-87
2022/09/13 08:18:44;;;;;;;1.33;0.50;;;21.20;99.90;;;;;;5073907;28;20416;-87
2022/09/13 08:21:11;;;;;;;0.60;0.60;;;21.30;99.90;;;;;;5073552;28;20436;-87
2022/09/13 08:23:38;;;;;;;0.47;0.47;;;21.40;99.90;;;;;;5073881;28;20818;-87
2022/09/13 08:26:07;;;;;;;0.70;0.50;;;21.50;99.90;;;;;;5073902;28;20464;-87
2022/09/13 08:28:35;;;;;;;0.87;0.87;;;21.50;99.90;;;;;;5073970;28;20435;-87
2022/09/13 08:31:07;;;;;;;0.80;0.50;;;21.60;99.90;;;;;;5073857;28;20476;-87
2022/09/13 08:33:33;;;;;;;0.50;0.50;;;21.80;99.90;;;;;;5073648;28;20479;-87
2022/09/13 08:36:01;;;;;;;0.60;0.60;;;21.90;99.90;;;;;;5073834;28;20500;-87
2022/09/13 08:38:28;;;;;;;0.50;0.50;;;22.00;99.90;;;;;;5073889;28;20452;-87
2022/09/13 08:40:57;;;;;;;0.43;0.43;;;22.10;99.90;;;;;;5074237;28;20455;-88
2022/09/13 08:43:39;;;;;;;0.50;0.50;;;22.20;99.90;;;;;;5074445;28;21005;-87
2022/09/13 08:46:15;;;;;;;0.50;0.50;;;22.30;99.90;;;;;;5078141;28;20432;-87
2022/09/13 08:48:47;;;;;;;0.80;0.53;;;22.50;99.90;;;;;;5078004;28;20439;-87
2022/09/13 08:51:27;;;;;;;0.40;0.40;;;22.60;99.90;;;;;;5077807;28;20463;-87
2022/09/13 08:53:54;;;;;;;0.90;0.40;;;22.80;99.90;;;;;;5077891;28;20226;-86
2022/09/13 08:56:26;;;;;;;0.60;0.43;;;23.10;99.90;;;;;;5077419;28;20502;-86
2022/09/13 08:59:07;;;;;;;0.43;0.43;;;23.30;99.90;;;;;;5077745;28;20201;-86
2022/09/13 09:01:50;;;;;;;0.60;0.50;;;23.30;99.90;;;;;;5077849;28;20541;-86
2022/09/13 09:04:33;;;;;;;0.50;0.50;;;23.30;99.90;;;;;;5077034;28;20232;-87
2022/09/13 09:07:05;;;;;;;1.00;0.60;;;23.40;99.90;;;;;;5077103;28;20220;-86
2022/09/13 09:09:36;;;;;;;0.50;0.50;;;23.60;99.90;;;;;;5077142;28;20186;-86
2022/09/13 09:12:14;;;;;;;0.50;0.50;;;24.00;99.90;;;;;;5076624;28;20657;-86
2022/09/13 09:14:46;;;;;;;0.52;0.50;;;24.40;99.90;;;;;;5077047;28;20550;-85
2022/09/13 09:17:18;;;;;;;0.50;0.50;;;24.60;99.90;;;;;;5076945;28;20194;-86
2022/09/13 09:19:48;;;;;;;0.43;0.40;;;24.50;99.90;;;;;;5076666;28;20190;-86
2022/09/13 09:22:17;;;;;;;0.47;0.47;;;24.50;99.90;;;;;;5076774;28;20187;-85
2022/09/13 09:24:48;;;;;;;0.60;0.60;;;24.40;99.90;;;;;;5076731;28;20208;-85
2022/09/13 09:27:17;;;;;;;0.60;0.60;;;24.50;99.90;;;;;;5076337;28;20221;-85
2022/09/13 09:29:47;;;;;;;0.50;0.50;;;24.60;99.90;;;;;;5076617;28;20241;-86
2022/09/13 09:32:24;;;;;;;0.60;0.60;;;24.70;99.90;;;;;;5076238;28;20666;-86
2022/09/13 09:35:11;;;;;;;0.52;0.50;;;25.00;99.90;;;;;;5076972;28;20213;-86
2022/09/13 09:37:40;;;;;;;0.50;0.50;;;25.20;99.90;;;;;;5076798;28;20217;-86
2022/09/13 09:40:12;;;;;;;0.50;0.50;;;25.40;99.90;;;;;;5076857;28;20193;-85
2022/09/13 09:42:42;;;;;;;0.50;0.40;;;25.40;99.90;;;;;;5076449;28;20222;-85
2022/09/13 09:45:25;;;;;;;0.40;0.40;;;25.30;99.90;;;;;;5076586;28;20202;-79
2022/09/13 09:47:53;;;;;;;0.40;0.40;;;25.40;99.90;;;;;;5075981;28;20186;-85
2022/09/13 09:50:23;;;;;;;0.50;0.50;;;25.20;99.90;;;;;;5076106;28;20233;-79
2022/09/13 09:52:56;;;;;;;0.68;0.50;;;25.10;99.90;;;;;;5075755;28;20740;-80
2022/09/13 09:55:28;;;;;;;0.60;0.50;;;25.00;99.90;;;;;;5074909;28;20203;-80
2022/09/13 09:57:57;;;;;;;0.40;0.40;;;25.00;99.90;;;;;;5076087;28;20190;-80
2022/09/13 10:00:28;;;;;;;0.40;0.40;;;25.00;99.90;;;;;;5075962;28;20240;-80
2022/09/13 10:03:00;;;;;;;0.57;0.57;;;25.20;99.90;;;;;;5075906;28;20226;-80
2022/09/13 10:05:27;;;;;;;0.40;0.40;;;25.40;99.90;;;;;;5076004;28;20277;-80
2022/09/13 10:07:57;;;;;;;1.58;0.43;;;25.60;99.90;;;;;;5076053;28;20202;-80
2022/09/13 10:10:29;;;;;;;0.45;0.45;;;26.00;99.90;;;;;;5075803;28;20210;-80
2022/09/13 10:12:58;;;;;;;0.60;0.57;;;26.30;99.40;;;;;;5075467;28;20313;-80
2022/09/13 10:15:33;;;;;;;0.60;0.60;;;26.50;98.80;;;;;;5075613;28;20202;-80
2022/09/13 10:18:11;;;;;;;0.93;0.60;;;26.50;99.60;;;;;;5075755;28;20201;-80
2022/09/13 10:20:38;;;;;;;1.15;0.60;;;26.60;97.70;;;;;;5075685;28;20186;-80
2022/09/13 10:23:20;;;;;;;0.70;0.50;;;26.50;98.70;;;;;;5075209;28;20765;-80
2022/09/13 10:25:59;;;;;;;0.57;0.50;;;26.70;98.20;;;;;;5075497;28;20232;-80
2022/09/13 10:28:27;;;;;;;0.70;0.60;;;26.90;97.20;;;;;;5075660;28;20216;-80
2022/09/13 10:30:58;;;;;;;0.40;0.40;;;27.00;97.40;;;;;;5075115;28;20226;-80
2022/09/13 10:33:29;;;;;;;0.57;0.55;;;26.90;96.80;;;;;;5075599;28;20225;-80
2022/09/13 10:35:58;;;;;;;0.77;0.77;;;26.80;97.10;;;;;;5075150;28;20186;-80
2022/09/13 10:38:29;;;;;;;0.80;0.60;;;26.70;96.80;;;;;;5074899;28;20194;-80
2022/09/13 10:40:57;;;;;;;0.60;0.60;;;26.60;97.20;;;;;;5075155;28;20186;-80
2022/09/13 10:43:27;;;;;;;0.50;0.50;;;26.80;97.90;;;;;;5075104;28;20717;-82
2022/09/13 10:45:56;;;;;;;0.60;0.52;;;27.00;95.90;;;;;;5075397;28;20187;-80
2022/09/13 10:48:24;;;;;;;0.55;0.50;;;27.30;95.20;;;;;;5074781;28;20212;-80
2022/09/13 10:51:06;;;;;;;0.50;0.50;;;27.80;94.20;;;;;;5074990;28;20267;-80
2022/09/13 10:53:37;;;;;;;0.50;0.50;;;27.90;92.10;;;;;;5074977;28;20218;-80
2022/09/13 10:56:06;;;;;;;0.50;0.45;;;28.00;92.10;;;;;;5074646;28;20548;-80
2022/09/13 10:58:32;;;;;;;0.50;0.50;;;27.80;91.70;;;;;;5074612;28;20597;-80
2022/09/13 11:01:29;;;;;;;0.77;0.60;;;27.50;92.40;;;;;;5074822;28;20194;-80
2022/09/13 11:04:31;;;;;;;0.40;0.40;;;27.20;92.80;;;;;;5074736;28;20229;-80
2022/09/13 11:07:17;;;;;;;2.65;0.50;;;27.00;93.70;;;;;;5051495;28;20197;-80
2022/09/13 11:09:52;;;;;;;0.60;0.60;;;26.70;94.30;;;;;;5057569;28;20213;-80
2022/09/13 11:12:28;;;;;;;0.40;0.40;;;26.40;93.20;;;;;;5074541;28;20226;-80
2022/09/13 11:15:04;;;;;;;0.60;0.40;;;26.30;93.70;;;;;;5074626;28;20182;-79
2022/09/13 11:17:53;;;;;;;0.50;0.50;;;26.00;93.20;;;;;;5074337;28;20182;-80
2022/09/13 11:20:31;;;;;;;0.40;0.40;;;25.90;94.50;;;;;;5074459;28;20186;-80
2022/09/13 11:23:22;;;;;;;0.30;0.30;;;25.80;94.70;;;;;;5073986;28;20605;-80
2022/09/13 11:26:00;;;;;;;0.50;0.50;;;25.70;94.00;;;;;;5074595;28;20650;-79
2022/09/13 11:28:39;;;;;;;0.40;0.40;;;25.60;94.80;;;;;;5074301;28;20192;-79
2022/09/13 11:31:21;;;;;;;0.50;0.50;;;25.60;94.70;;;;;;5073889;28;20577;-79
2022/09/13 11:34:00;;;;;;;0.60;0.60;;;25.60;94.70;;;;;;5073950;28;20209;-80
2022/09/13 11:36:53;;;;;;;0.40;0.40;;;25.50;94.90;;;;;;5074830;28;20549;-80
2022/09/13 11:39:30;;;;;;;1.10;0.50;;;25.60;94.60;;;;;;5074074;28;20190;-80
2022/09/13 11:42:11;;;;;;;0.35;0.35;;;25.60;94.90;;;;;;5073707;28;20560;-80
2022/09/13 11:45:18;;;;;;;0.50;0.45;;;25.60;94.80;;;;;;5074047;28;20186;-81
2022/09/13 11:47:56;;;;;;;0.77;0.77;;;25.60;94.20;;;;;;5073919;28;20187;-80
2022/09/13 11:50:34;;;;;;;0.40;0.40;;;25.60;94.90;;;;;;5073854;28;20193;-79
2022/09/13 11:53:28;;;;;;;0.50;0.50;;;25.60;93.90;;;;;;5073822;28;20313;-79
2022/09/13 11:55:59;;;;;;;0.50;0.50;;;25.60;92.80;;;;;;5073852;28;20190;-79
2022/09/13 11:58:31;;;;;;;3.90;0.55;;;25.60;93.70;;;;;;5073836;28;20190;-80
2022/09/13 12:01:01;;;;;;;0.50;0.50;;;25.70;95.10;;;;;;5073469;28;20599;-79
2022/09/13 12:03:34;;;;;;;0.50;0.50;;;25.80;94.20;;;;;;5073709;28;20218;-80
2022/09/13 12:06:07;;;;;;;0.60;0.60;;;25.80;94.40;;;;;;5073750;28;20194;-79
2022/09/13 12:08:40;;;;;;;0.40;0.40;;;25.90;93.70;;;;;;5073730;28;20182;-80
2022/09/13 12:11:11;;;;;;;0.43;0.40;;;25.80;94.10;;;;;;5073555;28;20210;-80
2022/09/13 12:13:44;;;;;;;0.50;0.50;;;25.90;94.40;;;;;;5073626;28;20222;-79
2022/09/13 12:16:16;;;;;;;0.50;0.40;;;25.80;94.50;;;;;;5073622;28;20197;-79
2022/09/13 12:18:45;;;;;;;0.40;0.40;;;25.80;94.80;;;;;;5073052;28;20194;-80
2022/09/13 12:21:18;;;;;;;0.40;0.40;;;25.70;94.50;;;;;;5073545;28;20213;-79
2022/09/13 12:23:51;;;;;;;0.40;0.40;;;25.70;95.10;;;;;;5073559;28;20256;-79
2022/09/13 12:26:23;;;;;;;3.60;0.50;;;25.60;95.00;;;;;;5073281;28;20233;-80
2022/09/13 12:28:54;;;;;;;0.50;0.50;;;25.60;94.20;;;;;;5074010;28;20197;-79
2022/09/13 12:31:23;;;;;;;0.40;0.40;;;25.60;91.20;;;;;;5073359;28;20198;-80
2022/09/13 12:33:50;;;;;;;0.35;0.35;;;25.60;91.80;;;;;;5073278;28;20226;-79
2022/09/13 12:36:40;;;;;;;0.40;0.40;;;25.60;91.10;;;;;;5073101;28;20194;-79
2022/09/13 12:39:52;;;;;;;0.50;0.40;;;25.60;91.20;;;;;;5073328;28;20224;-79
2022/09/13 12:42:45;;;;;;;0.60;0.60;;;25.70;92.40;;;;;;5067958;28;20225;-79
2022/09/13 12:45:30;;;;;;;0.40;0.40;;;25.60;91.90;;;;;;5073319;28;20186;-80
2022/09/13 12:48:19;;;;;;;0.50;0.50;;;25.70;91.50;;;;;;5073104;28;20193;-79
2022/09/13 12:51:14;;;;;;;0.43;0.43;;;25.80;90.60;;;;;;5072934;28;20185;-80
2022/09/13 12:54:16;;;;;;;0.47;0.47;;;25.80;90.90;;;;;;5073427;28;20226;-80
2022/09/13 12:56:55;;;;;;;0.40;0.40;;;25.70;90.30;;;;;;5072673;28;20201;-80
2022/09/13 12:59:41;;;;;;;0.40;0.40;;;25.80;90.50;;;;;;5072874;28;20197;-80
2022/09/13 13:02:27;;;;;;;0.50;0.50;;;25.70;90.60;;;;;;5073049;28;20191;-79
2022/09/13 13:04:58;;;;;;;1.63;0.50;;;25.50;90.80;;;;;;5073092;28;20209;-80
2022/09/13 13:07:25;;;;;;;0.50;0.50;;;25.50;91.60;;;;;;5073093;28;20220;-80
2022/09/13 13:09:54;;;;;;;1.40;0.70;;;25.40;91.30;;;;;;5073164;28;20572;-80
2022/09/13 13:12:30;;;;;;;0.60;0.60;;;25.40;90.70;;;;;;5072614;28;20599;-80